Prior Lake, MN (55372)

6:55 AM CST on March 01, 2015 (GMT -0600)
Cardinal Ridge | Change Station
CLOSE
Current Station
Personal Weather Station
Location: Prior Lake, MN
Elevation: 953 ft
Nearby Weather Stations

Elev 953 ft 44.71 °N, 93.41 °W | Updated 14 minutes ago

Overcast
Overcast
15.7 °F
Feels Like 16 °F
N
1.8
Wind Variable Wind from WSW
Gusts 1.8 mph

Today
High -- | Low -- °F
--% Chance of Precip.
Yesterday
High -- | Low -- °F
Precip. -- in
6:51 AM 6:01 PM
Waxing Gibbous, 85% visible
Pressure 30.28 in
Visibility 7.0 miles
Clouds Overcast 1300 ft
Windchill 16 °F
Dew Point 12 °F
Humidity 85%
Rainfall 0.00 in
Snow Depth Not available.
UV 0 out of 12
Pollen .50 out of 12
Air Quality Not available.
Flu Activity Not available.
METAR KFCM 011153Z 23004KT 7SM OVC013 M09/M12 A3022 RMK AO2 SLP253 T10941122 11089 21111 56003

More Conditions Fewer Conditions

Pressure 30.28 in
Visibility 7.0 miles
Clouds Overcast 1300 ft
Windchill 16 °F
Dew Point 12 °F
Humidity 85%
Rainfall 0.00 in
Snow Depth Not available.
UV 0 out of 12
Pollen .50 out of 12
Air Quality Not available.
Flu Activity Not available.
METAR KFCM 011153Z 23004KT 7SM OVC013 M09/M12 A3022 RMK AO2 SLP253 T10941122 11089 21111 56003

More Conditions Fewer Conditions

10-Day Weather Forecast

Almanac

Astronomy

Mar. 01, 2015 Rise Set
Actual Time
Civil Twilight
Nautical Twilight
Astronomical Twilight
Moon
Length of Visible Light
Length of Day
Tomorrow will be .
, % of the Moon is Illuminated

Today's Extremes

State Highs State Lows

Community

WunderPhotos

Upload Photos

1,801,371 photos uploaded!

WunderBlogs® & News

Nearby

Air Quality

  Air Quality AQ Index Pollutant
Not available.

Snow Depth

Station Depth Elevation

Earthquake Activity

City Distance Mag. Time & Date
Minimum magnitude displayed is 2.5.

Coastal Water Temperatures

Place Temperature

Nearby Weather Stations